Latest Weather Observations for Hobart

IDT60901

Issued at 1:41 pm EST Tuesday 30 June 2015 (issued every 10 minutes, with the page automatically refreshed every 10 minutes)

About weather observations | Map of Hobart area stations | Latest observations for Hobart area | Other Formats
Station Details ID: 094029 Name: HOBART (ELLERSLIE ROAD) Lat: -42.89 Lon: 147.33 Height: 50.5 m
Data from the previous 72 hours. | See also: Recent months at Hobart
Date/Time
EST
Tmp

°C
App
Tmp
°C
Dew
Point
°C
Rel
Hum
%
Delta-T

°C
Wind Press
QNH
hPa
Press
MSL
hPa
Rain
since
9 am
mm
Dir
 
Spd
km/h
Gust
km/h
Spd
kts
Gust
kts
30/01:30pm 13.9 9.7 4.0 51 4.5 NNW 15 24 8 13 1023.0 1023.1 0.0
30/01:00pm 13.7 8.8 4.0 52 4.4 NNW 19 28 10 15 1023.2 1023.3 0.0
30/12:30pm 13.4 8.8 3.9 52 4.3 NNW 17 28 9 15 1023.3 1023.4 0.0
30/12:00pm 12.7 7.8 4.0 55 3.9 NNW 19 26 10 14 1023.6 1023.7 0.0
30/11:30am 12.4 7.8 3.6 55 3.9 NNW 17 24 9 13 1024.0 1024.1 0.0
30/11:00am 12.2 7.6 3.7 56 3.8 NNW 17 26 9 14 1024.6 1024.7 0.0
30/10:30am 11.8 8.0 3.7 57 3.6 NW 13 22 7 12 1024.7 1024.8 0.0
30/10:00am 10.8 9.0 3.5 60 3.2 WNW 2 7 1 4 1024.8 1024.9 0.0
30/09:30am 9.2 6.6 3.1 65 2.6 SW 6 9 3 5 1024.9 1025.0 0.0
30/09:00am 7.5 4.3 3.0 73 1.9 NW 9 17 5 9 1024.9 1025.0 0.0
30/08:30am 6.6 3.9 2.7 76 1.6 WNW 6 19 3 10 1024.7 1024.8 0.0
30/08:00am 5.8 3.1 2.6 80 1.3 WSW 6 11 3 6 1024.5 1024.6 0.0
30/07:30am 6.5 3.6 2.6 76 1.6 W 7 13 4 7 1024.3 1024.4 0.0
30/07:00am 7.1 3.8 2.5 72 1.9 NNW 9 17 5 9 1024.1 1024.2 0.0
30/06:30am 7.5 3.9 2.7 71 2.0 WNW 11 17 6 9 1023.8 1023.9 0.0
30/06:00am 7.5 3.8 2.4 70 2.1 WNW 11 19 6 10 1023.3 1023.4 0.0
30/05:30am 8.8 4.4 2.6 65 2.6 WNW 15 22 8 12 1023.2 1023.3 0.0
30/05:00am 8.8 5.6 2.9 66 2.5 NW 9 19 5 10 1023.0 1023.1 0.0
30/04:30am 8.6 4.2 2.9 67 2.4 NW 15 28 8 15 1023.0 1023.1 0.0
30/04:00am 8.4 5.1 2.7 67 2.4 WSW 9 22 5 12 1023.1 1023.2 0.0
30/03:30am 8.7 4.0 3.1 68 2.4 WNW 17 28 9 15 1023.2 1023.3 0.0
30/03:00am 8.1 4.1 3.1 71 2.1 WNW 13 24 7 13 1023.4 1023.5 0.0
30/02:30am 8.3 5.1 3.1 70 2.2 NW 9 20 5 11 1023.4 1023.5 0.0
30/02:00am 8.3 5.4 2.8 68 2.3 SW 7 17 4 9 1023.5 1023.6 0.0
30/01:30am 9.8 5.1 3.0 62 2.9 NW 17 32 9 17 1023.3 1023.4 0.0
30/01:00am 9.8 5.0 2.8 61 3.0 NW 17 30 9 16 1023.2 1023.3 0.0
30/12:30am 8.4 4.4 2.7 67 2.4 SW 13 28 7 15 1023.6 1023.7 0.0
30/12:00am 9.4 4.2 2.5 62 2.9 WNW 19 32 10 17 1023.7 1023.8 0.0
 
Date/Time
EST
Tmp

°C
App
Tmp
°C
Dew
Point
°C
Rel
Hum
%
Delta-T

°C
Wind Press
QNH
hPa
Press
MSL
hPa
Rain
since
9 am
mm
Dir
 
Spd
km/h
Gust
km/h
Spd
kts
Gust
kts
29/11:30pm 9.9 7.1 2.9 62 3.0 W 7 20 4 11 1023.7 1023.8 0.0
29/11:00pm 9.0 5.8 2.9 65 2.6 NNW 9 26 5 14 1023.8 1023.9 0.0
29/10:30pm 8.9 6.3 3.3 68 2.4 WNW 6 15 3 8 1023.7 1023.8 0.0
29/10:00pm 10.0 6.4 3.0 62 3.0 NNW 11 26 6 14 1023.7 1023.8 0.0
29/09:30pm 10.2 7.4 3.3 62 3.0 N 7 17 4 9 1023.6 1023.7 0.0
29/09:00pm 11.3 8.4 2.7 55 3.7 NE 7 17 4 9 1023.8 1023.9 0.0
29/08:41pm 12.4 6.1 1.6 47 4.6 WNW 24 52 13 28 1023.8 1023.9 0.0
29/08:30pm 12.5 3.7 1.4 46 4.7 WNW 37 56 20 30 1023.4 1023.5 0.0
29/08:00pm 12.3 2.3 2.1 49 4.4 WNW 44 63 24 34 1023.4 1023.5 0.0
29/07:33pm 11.5 2.4 4.1 60 3.3 NW 41 59 22 32 1023.5 1023.6 0.0
29/07:30pm 11.6 2.9 4.0 59 3.4 NW 39 56 21 30 1023.5 1023.6 0.0
29/07:05pm 12.0 2.5 3.9 57 3.6 NW 43 61 23 33 1023.5 1023.6 0.0
29/07:00pm 12.1 2.4 4.1 58 3.6 NW 44 61 24 33 1023.4 1023.5 0.0
29/06:30pm 12.3 3.2 4.1 57 3.7 NW 41 61 22 33 1023.4 1023.5 0.0
29/06:10pm 12.3 3.6 4.1 57 3.7 NW 39 65 21 35 1023.5 1023.6 0.0
29/06:00pm 12.5 3.4 4.1 56 3.8 NW 41 57 22 31 1023.6 1023.7 0.0
29/05:31pm 12.6 3.9 3.9 55 3.9 NW 39 61 21 33 1023.5 1023.6 0.0
29/05:30pm 12.6 3.9 3.9 55 3.9 NW 39 54 21 29 1023.5 1023.6 0.0
29/05:00pm 12.8 5.8 4.2 56 3.9 NW 30 48 16 26 1023.4 1023.5 0.0
29/04:30pm 13.4 5.1 4.4 54 4.1 NW 37 56 20 30 1023.3 1023.4 0.0
29/04:28pm 13.4 5.1 4.4 54 4.1 NW 37 56 20 30 1023.2 1023.3 0.0
29/04:00pm 14.0 5.6 3.9 50 4.6 NNW 37 52 20 28 1023.4 1023.5 0.0
29/03:30pm 14.4 6.7 3.6 48 4.9 NNW 33 46 18 25 1023.4 1023.5 0.0
29/03:00pm 15.2 8.4 3.0 44 5.5 NNW 28 41 15 22 1023.3 1023.4 0.0
29/02:30pm 15.0 7.4 2.7 43 5.5 NW 32 50 17 27 1023.3 1023.4 0.0
29/02:23pm 15.0 8.1 2.7 43 5.5 NW 28 50 15 27 1023.1 1023.2 0.0
29/02:00pm 15.6 7.9 2.4 41 5.9 NNW 32 48 17 26 1023.3 1023.4 0.0
29/01:30pm 15.7 8.1 2.8 42 5.8 NW 32 50 17 27 1023.2 1023.3 0.0
29/01:00pm 15.8 7.7 3.0 42 5.8 NW 35 54 19 29 1023.3 1023.4 0.0
29/12:55pm 15.6 7.5 3.3 43 5.6 NW 35 54 19 29 1023.2 1023.3 0.0
29/12:30pm 15.5 7.4 3.1 43 5.6 NNW 35 48 19 26 1023.4 1023.5 0.0
29/12:00pm 15.7 11.9 3.7 44 5.5 NNW 13 35 7 19 1023.6 1023.7 0.0
29/11:30am 14.6 10.5 4.1 49 4.8 SE 15 24 8 13 1024.0 1024.1 0.0
29/11:00am 14.2 10.9 4.4 51 4.5 ESE 11 19 6 10 1024.6 1024.7 0.0
29/10:30am 13.8 10.5 4.4 53 4.3 ESE 11 17 6 9 1025.1 1025.2 0.0
29/10:00am 14.1 9.2 4.0 50 4.6 NW 19 33 10 18 1025.0 1025.1 0.0
29/09:30am 12.8 7.8 4.7 58 3.7 NNW 20 35 11 19 1024.8 1024.9 0.0
29/09:13am 12.6 6.1 4.5 58 3.7 NNW 28 46 15 25 1024.9 1025.0 0.0
29/09:00am 12.5 4.6 4.6 58 3.6 NNW 35 46 19 25 1024.6 1024.7 0.0
29/08:46am 12.4 5.8 4.2 57 3.7 NNW 28 48 15 26 1024.6 1024.7 0.0
29/08:30am 12.0 4.7 4.7 61 3.3 NNW 32 44 17 24 1024.7 1024.8 0.0
29/08:00am 11.8 4.6 4.8 62 3.2 NNW 32 43 17 23 1024.5 1024.6 0.0
29/07:39am 11.7 5.2 4.9 63 3.1 NNW 28 46 15 25 1024.5 1024.6 0.0
29/07:30am 11.7 5.6 4.9 63 3.1 NNW 26 35 14 19 1024.7 1024.8 0.0
29/07:00am 11.6 6.6 4.8 63 3.1 N 20 32 11 17 1024.8 1024.9 0.0
29/06:30am 11.7 6.7 4.4 61 3.3 N 20 30 11 16 1024.5 1024.6 0.0
29/06:00am 11.8 7.4 4.5 61 3.3 NNE 17 26 9 14 1024.1 1024.2 0.0
29/05:30am 12.5 6.9 3.5 54 4.0 N 22 33 12 18 1023.8 1023.9 0.0
29/05:00am 12.4 7.2 3.4 54 4.0 NNW 20 32 11 17 1023.7 1023.8 0.0
29/04:30am 12.3 7.1 3.5 55 3.9 N 20 28 11 15 1023.7 1023.8 0.0
29/04:00am 12.2 6.8 4.5 59 3.5 N 22 32 12 17 1023.5 1023.6 0.0
29/03:31am 12.5 5.8 3.8 55 3.9 NNW 28 46 15 25 1023.4 1023.5 0.0
29/03:30am 12.5 6.2 3.8 55 3.9 NNW 26 46 14 25 1023.3 1023.4 0.0
29/03:00am 12.2 7.0 3.7 56 3.8 NNW 20 35 11 19 1023.5 1023.6 0.0
29/02:30am 12.4 7.4 3.4 54 4.0 NNW 19 32 10 17 1023.4 1023.5 0.0
29/02:00am 12.5 6.9 3.2 53 4.1 NNW 22 35 12 19 1023.5 1023.6 0.0
29/01:30am 12.5 7.4 2.9 52 4.2 NNW 19 32 10 17 1023.4 1023.5 0.0
29/01:00am 12.4 7.9 4.2 57 3.7 NNW 17 24 9 13 1023.6 1023.7 0.0
29/12:30am 12.2 8.2 4.7 60 3.4 NW 15 26 8 14 1023.5 1023.6 0.0
29/12:00am 12.4 8.0 4.7 59 3.5 NW 17 24 9 13 1023.6 1023.7 0.0
 
Date/Time
EST
Tmp

°C
App
Tmp
°C
Dew
Point
°C
Rel
Hum
%
Delta-T

°C
Wind Press
QNH
hPa
Press
MSL
hPa
Rain
since
9 am
mm
Dir
 
Spd
km/h
Gust
km/h
Spd
kts
Gust
kts
28/11:30pm 13.0 7.2 4.2 55 4.0 NW 24 39 13 21 1023.5 1023.6 0.0
28/11:00pm 13.0 8.0 4.4 56 3.9 NNW 20 30 11 16 1023.5 1023.6 0.0
28/10:30pm 13.0 7.2 4.2 55 4.0 NW 24 32 13 17 1023.8 1023.9 0.0
28/10:00pm 13.2 6.9 3.9 53 4.2 NNW 26 41 14 22 1023.3 1023.4 0.0
28/09:30pm 13.0 7.3 4.7 57 3.8 NNW 24 35 13 19 1023.4 1023.5 0.0
28/09:00pm 13.1 7.7 4.6 56 3.9 NNW 22 33 12 18 1023.3 1023.4 0.0
28/08:30pm 13.0 7.2 4.4 56 3.9 NNW 24 39 13 21 1023.5 1023.6 0.0
28/08:00pm 12.9 8.5 4.6 57 3.8 NNW 17 24 9 13 1023.5 1023.6 0.0
28/07:30pm 13.6 7.6 3.6 51 4.5 WNW 24 52 13 28 1023.4 1023.5 0.0
28/07:25pm 13.7 8.4 2.9 48 4.8 NNW 20 52 11 28 1023.4 1023.5 0.0
28/07:00pm 13.0 7.6 4.7 57 3.8 NNW 22 30 12 16 1023.2 1023.3 0.0
28/06:30pm 12.9 8.0 4.9 58 3.7 NNW 20 35 11 19 1022.7 1022.8 0.0
28/06:00pm 13.1 8.1 4.8 57 3.8 NNW 20 37 11 20 1022.8 1022.9 0.0
28/05:30pm 13.0 7.3 5.0 58 3.7 NNW 24 39 13 21 1022.6 1022.7 0.0
28/05:00pm 13.2 7.9 5.0 57 3.8 N 22 32 12 17 1022.6 1022.7 0.0
28/04:30pm 13.2 7.0 6.0 61 3.4 NNW 28 41 15 22 1022.5 1022.6 0.0
28/04:00pm 13.7 9.1 5.6 58 3.8 NNW 19 28 10 15 1022.4 1022.5 0.0
28/03:30pm 14.0 8.9 5.8 57 3.9 NNW 22 43 12 23 1022.3 1022.4 0.0
28/03:00pm 14.0 7.7 5.8 57 3.9 NNW 28 39 15 21 1022.3 1022.4 0.0
28/02:42pm 13.9 7.5 5.4 56 4.0 NNW 28 50 15 27 1022.4 1022.5 0.0
28/02:30pm 14.0 7.7 5.5 56 4.0 NNW 28 43 15 23 1022.3 1022.4 0.0
28/02:00pm 14.1 7.2 4.8 53 4.3 NNW 30 46 16 25 1022.3 1022.4 0.0
28/01:35pm 13.9 7.0 4.6 53 4.3 NNW 30 48 16 26 1022.4 1022.5 0.0
28/01:30pm 13.8 6.9 4.7 54 4.2 NNW 30 43 16 23 1022.5 1022.6 0.0
28/01:00pm 14.4 7.4 3.9 49 4.8 NNW 30 50 16 27 1022.5 1022.6 0.0
28/12:50pm 14.6 7.9 3.6 47 5.0 NNW 28 46 15 25 1022.7 1022.8 0.0
28/12:30pm 13.9 7.2 3.4 49 4.7 NNW 28 41 15 22 1023.2 1023.3 0.0
28/12:03pm 13.4 6.7 3.6 51 4.4 NNW 28 46 15 25 1023.2 1023.3 0.0
28/12:00pm 13.3 6.2 3.7 52 4.3 NNW 30 46 16 25 1023.2 1023.3 0.0
28/11:31am 13.1 6.6 4.6 56 3.9 NNW 28 46 15 25 1023.4 1023.5 0.0
28/11:30am 13.1 6.6 4.6 56 3.9 NNW 28 43 15 23 1023.5 1023.6 0.0
28/11:00am 12.4 5.0 4.2 57 3.7 NNW 32 52 17 28 1023.7 1023.8 0.0
28/10:47am 12.2 5.7 4.7 60 3.4 NNW 28 46 15 25 1023.7 1023.8 0.0
28/10:30am 12.1 6.2 3.8 57 3.7 N 24 35 13 19 1023.7 1023.8 0.0
28/10:00am 11.8 5.4 3.1 55 3.8 N 26 39 14 21 1024.0 1024.1 0.0
28/09:30am 11.4 5.7 2.9 56 3.7 N 22 32 12 17 1024.1 1024.2 0.0
28/09:00am 11.4 6.3 2.9 56 3.7 N 19 28 10 15 1024.0 1024.1 0.0
28/08:30am 11.1 4.5 2.2 54 3.8 NNW 26 41 14 22 1024.0 1024.1 0.0
28/08:00am 10.7 2.8 1.0 51 4.0 N 32 46 17 25 1023.5 1023.6 0.0
28/07:51am 10.4 3.3 1.2 53 3.8 N 28 46 15 25 1023.1 1023.2 0.0
28/07:30am 10.3 2.2 0.8 51 3.9 NNW 33 48 18 26 1023.0 1023.1 0.0
28/07:14am 10.2 2.7 0.9 52 3.8 NNW 30 52 16 28 1023.0 1023.1 0.0
28/07:00am 10.4 2.4 0.6 50 4.0 NNW 32 43 17 23 1023.3 1023.4 0.0
28/06:30am 10.4 4.0 0.9 52 3.9 N 24 37 13 20 1023.1 1023.2 0.0
28/06:00am 10.9 4.6 1.3 51 4.0 N 24 37 13 20 1022.7 1022.8 0.0
28/05:30am 11.1 7.0 2.2 54 3.8 WNW 13 20 7 11 1022.5 1022.6 0.0
28/05:00am 11.1 6.0 3.3 58 3.4 ESE 19 28 10 15 1022.2 1022.3 0.0
28/04:30am 10.9 7.3 4.9 66 2.7 E 13 26 7 14 1022.0 1022.1 0.0
28/04:00am 11.2 7.8 6.0 70 2.4 E 13 24 7 13 1021.8 1021.9 0.0
28/03:30am 11.5 8.5 6.2 70 2.5 E 11 17 6 9 1021.8 1021.9 0.0
28/03:00am 11.7 6.6 5.9 67 2.7 N 22 33 12 18 1021.8 1021.9 0.0
28/02:30am 11.7 6.5 5.4 65 2.9 NE 22 33 12 18 1021.4 1021.5 0.0
28/02:00am 11.5 5.9 5.2 65 2.9 NNE 24 35 13 19 1020.7 1020.8 0.0
28/01:30am 11.5 6.2 4.9 64 3.0 NNE 22 33 12 18 1020.7 1020.8 0.0
28/01:00am 11.4 6.4 4.8 64 3.0 NNE 20 32 11 17 1020.6 1020.7 0.0
28/12:30am 11.6 7.2 4.5 61 3.2 NNE 17 28 9 15 1020.9 1021.0 0.0
28/12:00am 12.0 6.8 3.7 57 3.7 NW 20 48 11 26 1020.6 1020.7 0.0
 
Date/Time
EST
Tmp

°C
App
Tmp
°C
Dew
Point
°C
Rel
Hum
%
Delta-T

°C
Wind Press
QNH
hPa
Press
MSL
hPa
Rain
since
9 am
mm
Dir
 
Spd
km/h
Gust
km/h
Spd
kts
Gust
kts
27/11:30pm 11.7 7.5 3.8 58 3.5 NW 15 30 8 16 1020.2 1020.3 0.0
27/11:00pm 11.7 6.7 3.6 57 3.6 N 19 33 10 18 1019.8 1019.9 0.0
27/10:30pm 11.6 7.1 4.3 61 3.3 NNE 17 28 9 15 1020.1 1020.2 0.0
27/10:00pm 11.7 6.2 4.1 59 3.4 NNE 22 33 12 18 1020.2 1020.3 0.0
27/09:30pm 11.8 6.2 3.7 57 3.6 NNE 22 33 12 18 1020.0 1020.1 0.0
27/09:00pm 11.7 7.0 3.3 56 3.7 NNE 17 28 9 15 1020.1 1020.2 0.0
27/08:30pm 12.0 6.6 2.3 51 4.2 N 20 32 11 17 1020.2 1020.3 0.0
27/08:00pm 11.8 6.4 2.6 53 4.0 NNE 20 33 11 18 1020.4 1020.5 0.0
27/07:30pm 11.7 6.3 2.7 54 3.9 NNE 20 35 11 19 1020.2 1020.3 0.0
27/07:00pm 11.9 6.1 2.4 52 4.1 NNE 22 35 12 19 1020.3 1020.4 0.0
27/06:30pm 12.2 6.7 1.9 49 4.4 N 20 37 11 20 1020.3 1020.4 0.0
27/06:00pm 12.1 7.1 1.2 47 4.6 N 17 28 9 15 1020.2 1020.3 0.0
27/05:30pm 12.1 7.4 0.9 46 4.7 N 15 28 8 15 1020.1 1020.2 0.0
27/05:00pm 12.3 5.8 0.5 44 4.9 NNW 24 39 13 21 1020.2 1020.3 0.0
27/04:30pm 12.4 6.9 0.3 43 5.0 NNW 19 35 10 19 1020.4 1020.5 0.0
27/04:11pm 12.7 7.1 0.1 42 5.2 N 19 46 10 25 1020.0 1020.1 0.0
27/04:00pm 12.7 7.0 0.8 44 5.0 NW 20 41 11 22 1020.3 1020.4 0.0
27/03:50pm 13.1 5.8 -0.3 39 5.5 NNW 28 46 15 25 1020.2 1020.3 0.0
27/03:30pm 13.4 7.8 -0.1 39 5.6 NNW 19 32 10 17 1020.0 1020.1 0.0
27/03:00pm 14.2 7.6 -0.2 37 6.0 NW 24 44 13 24 1019.9 1020.0 0.0
27/02:30pm 13.9 7.7 -0.3 37 5.9 NW 22 35 12 19 1019.6 1019.7 0.0
27/02:13pm 14.1 6.6 -1.1 35 6.2 NNW 28 48 15 26 1019.6 1019.7 0.0
27/02:00pm 14.4 7.7 -0.9 35 6.3 NW 24 46 13 25 1019.9 1020.0 0.0
27/01:44pm 14.4 7.0 -0.9 35 6.3 NW 28 46 15 25 1020.2 1020.3 0.0

Latest Capital City Observations: Canberra | Sydney | Melbourne | Brisbane | Adelaide | Perth | Hobart | Darwin

Other Formats:

Comma delimited format used in spreadsheet applications
http://www.bom.gov.au/fwo/IDT60901/IDT60901.94970.axf

JavaScript Object Notation format (JSON) in row-major order
http://www.bom.gov.au/fwo/IDT60901/IDT60901.94970.json